Time;durP1;ratioP1;P1;durP2;ratioP2;P2;SDS_P1;SDS_P2;PMS_P1;PMS_P2;Temp;Humidity;BMP_temperature;BMP_pressure;BME280_temperature;BME280_humidity;BME280_pressure;Samples;Min_cycle;Max_cycle;Signal;HPM_P1;HPM_P2
2022/12/30 00:00:59;;;;;;;15.70;3.22;;;;;;;3.94;100.00;100974.84;5050246;28;20029;-78
2022/12/30 00:03:25;;;;;;;21.63;2.97;;;;;;;3.88;100.00;100973.44;5052966;28;20384;-78
2022/12/30 00:05:51;;;;;;;15.02;2.55;;;;;;;3.80;100.00;100975.69;5054010;28;20025;-78
2022/12/30 00:11:00;;;;;;;18.67;2.78;;;;;;;3.70;100.00;100976.25;5053940;28;20052;-79
2022/12/30 00:33:44;;;;;;;20.52;3.45;;;;;;;3.40;100.00;100970.97;5052821;28;20130;-77
2022/12/30 00:36:09;;;;;;;17.88;2.50;;;;;;;3.40;100.00;100970.16;5053539;28;20128;-79
2022/12/30 00:38:35;;;;;;;23.75;2.85;;;;;;;3.42;100.00;100973.53;5053021;28;20125;-78
2022/12/30 00:43:44;;;;;;;13.82;2.90;;;;;;;3.47;100.00;100984.63;5053297;28;20059;-78
2022/12/30 00:46:11;;;;;;;13.10;2.20;;;;;;;3.57;100.00;100985.81;5052606;28;20025;-78
2022/12/30 00:56:49;;;;;;;14.73;2.40;;;;;;;3.67;100.00;100973.78;5051989;28;20121;-77
2022/12/30 00:59:14;;;;;;;18.10;2.05;;;;;;;3.67;100.00;100976.44;5052988;28;20520;-78
2022/12/30 01:01:40;;;;;;;22.60;3.42;;;;;;;3.59;100.00;100980.44;5052530;28;20025;-78
2022/12/30 01:04:05;;;;;;;20.25;3.05;;;;;;;3.57;100.00;100979.66;5053004;28;20029;-78
2022/12/30 01:06:31;;;;;;;20.58;2.47;;;;;;;3.55;100.00;100981.56;5052546;28;20108;-79
2022/12/30 01:08:56;;;;;;;10.95;3.05;;;;;;;3.49;100.00;100988.88;5052937;28;20021;-78
2022/12/30 01:11:22;;;;;;;14.27;2.35;;;;;;;3.43;100.00;100997.09;5052393;28;20450;-77
2022/12/30 01:13:47;;;;;;;18.20;2.78;;;;;;;3.44;100.00;101004.06;5052414;28;20040;-78
2022/12/30 01:16:16;;;;;;;18.92;3.38;;;;;;;3.45;100.00;100997.88;5052861;28;20021;-78
2022/12/30 01:18:41;;;;;;;9.45;1.90;;;;;;;3.45;100.00;101000.53;5052279;28;20350;-78
2022/12/30 01:21:07;;;;;;;14.80;2.80;;;;;;;3.42;100.00;100995.44;5052378;28;20059;-77
2022/12/30 01:23:33;;;;;;;13.15;2.10;;;;;;;3.39;100.00;101002.63;5052300;28;20100;-78
2022/12/30 01:26:04;;;;;;;13.18;2.05;;;;;;;3.31;100.00;101000.47;5052725;28;20029;-78
2022/12/30 01:28:36;;;;;;;14.88;2.20;;;;;;;3.35;100.00;101012.50;5051973;28;20055;-78
2022/12/30 01:31:07;;;;;;;20.08;2.78;;;;;;;3.29;100.00;101011.06;5052661;28;20110;-79
2022/12/30 01:33:34;;;;;;;15.13;3.03;;;;;;;3.28;100.00;101011.16;5052126;28;20029;-76
2022/12/30 01:35:59;;;;;;;15.23;2.60;;;;;;;3.25;100.00;101019.22;5051942;28;20389;-78
2022/12/30 01:38:25;;;;;;;13.20;2.40;;;;;;;3.19;100.00;101020.41;5052261;28;20025;-77
2022/12/30 01:40:50;;;;;;;25.15;2.42;;;;;;;3.16;100.00;101015.31;5052510;28;20445;-78
2022/12/30 01:43:17;;;;;;;29.65;3.05;;;;;;;3.11;100.00;101009.50;5051195;28;20043;-78
2022/12/30 01:45:51;;;;;;;14.77;2.40;;;;;;;3.10;100.00;101023.56;5051030;28;20127;-78
2022/12/30 01:48:23;;;;;;;17.73;2.97;;;;;;;3.07;100.00;101021.94;5052427;28;20055;-78
2022/12/30 01:51:02;;;;;;;14.93;1.80;;;;;;;3.10;100.00;101007.78;5050704;28;20396;-79
2022/12/30 01:53:38;;;;;;;16.20;2.28;;;;;;;3.15;100.00;101008.38;5051822;28;20063;-79
2022/12/30 01:56:06;;;;;;;19.02;2.80;;;;;;;3.11;100.00;100997.19;5052213;28;20469;-78
2022/12/30 01:58:41;;;;;;;16.20;2.53;;;;;;;3.07;100.00;100993.03;5055796;28;20025;-77
2022/12/30 02:01:07;;;;;;;11.80;2.10;;;;;;;3.02;100.00;100991.63;5055997;28;20508;-78
2022/12/30 02:03:36;;;;;;;13.65;2.60;;;;;;;3.05;100.00;100980.94;5055900;28;20109;-78
2022/12/30 02:06:03;;;;;;;13.20;2.22;;;;;;;3.07;100.00;100979.03;5056036;28;20028;-78
2022/12/30 02:08:32;;;;;;;12.40;2.75;;;;;;;3.07;100.00;100968.53;5056200;28;20032;-78
2022/12/30 02:10:58;;;;;;;21.70;3.70;;;;;;;3.06;100.00;100970.31;5056075;28;20017;-78
2022/12/30 02:13:23;;;;;;;8.48;2.42;;;;;;;3.02;100.00;100960.06;5056170;28;20025;-77
2022/12/30 02:16:00;;;;;;;9.50;2.92;;;;;;;3.08;100.00;100970.22;5055988;28;20365;-77
2022/12/30 02:18:34;;;;;;;20.02;3.40;;;;;;;3.13;100.00;100974.28;5056016;28;20132;-78
2022/12/30 02:21:30;;;;;;;19.13;2.88;;;;;;;3.16;100.00;100979.38;5056504;28;20048;-77
2022/12/30 02:24:30;;;;;;;11.73;3.08;;;;;;;3.15;100.00;100974.19;5057269;28;20025;-77
2022/12/30 02:27:32;;;;;;;13.32;3.10;;;;;;;3.13;100.00;100976.91;5038448;28;20037;-77
2022/12/30 02:30:27;;;;;;;14.20;2.83;;;;;;;3.07;100.00;100979.88;5055336;28;20063;-77
2022/12/30 02:33:10;;;;;;;13.93;2.60;;;;;;;2.99;100.00;100980.31;5049259;28;20095;-78
2022/12/30 02:35:57;;;;;;;15.88;4.22;;;;;;;2.92;100.00;100973.72;5055352;28;20045;-77
2022/12/30 02:38:36;;;;;;;12.60;3.47;;;;;;;2.91;100.00;100982.56;5055605;28;20061;-77
2022/12/30 02:47:02;;;;;;;17.40;2.85;;;;;;;2.98;100.00;100988.28;5055551;28;20052;-77
2022/12/30 02:49:30;;;;;;;13.27;3.25;;;;;;;2.94;100.00;100979.75;5055589;28;20106;-78
2022/12/30 02:52:15;;;;;;;14.27;2.80;;;;;;;3.01;100.00;100969.72;5053637;28;20358;-77
2022/12/30 02:54:47;;;;;;;13.27;2.33;;;;;;;2.99;100.00;100972.44;5053959;28;20433;-78
2022/12/30 02:57:26;;;;;;;13.73;2.70;;;;;;;3.04;100.00;100976.59;5055225;28;20119;-78
2022/12/30 03:06:00;;;;;;;22.52;3.35;;;;;;;2.98;100.00;100970.72;5054569;28;20059;-77
2022/12/30 03:08:35;;;;;;;14.65;2.67;;;;;;;2.97;100.00;100970.81;5054423;28;20029;-76
2022/12/30 03:11:16;;;;;;;24.92;3.70;;;;;;;2.96;100.00;100964.72;5054321;28;20025;-76
2022/12/30 03:13:54;;;;;;;14.68;2.67;;;;;;;2.96;100.00;100969.16;5054590;28;20028;-78
2022/12/30 03:16:39;;;;;;;14.80;3.15;;;;;;;3.01;100.00;100953.94;5054586;28;20502;-78
2022/12/30 03:19:26;;;;;;;15.55;3.38;;;;;;;3.09;100.00;100954.38;5054169;28;20095;-77
2022/12/30 03:21:53;;;;;;;11.23;2.55;;;;;;;3.08;100.00;100947.41;5054209;28;20368;-77
2022/12/30 03:27:12;;;;;;;13.77;3.45;;;;;;;2.97;100.00;100942.78;5054418;28;20068;-77
2022/12/30 03:29:53;;;;;;;16.75;2.67;;;;;;;2.91;100.00;100944.88;5054634;28;20017;-78
2022/12/30 03:32:20;;;;;;;14.93;2.67;;;;;;;2.92;100.00;100949.22;5054219;28;20037;-78
2022/12/30 03:34:47;;;;;;;18.70;3.45;;;;;;;2.93;100.00;100940.41;5053541;28;20051;-78
2022/12/30 03:37:39;;;;;;;16.85;2.95;;;;;;;2.97;100.00;100949.78;5054664;28;20450;-78
2022/12/30 03:40:10;;;;;;;13.30;3.45;;;;;;;3.03;100.00;100944.22;5049391;28;20099;-78
2022/12/30 03:42:35;;;;;;;17.20;3.05;;;;;;;2.97;100.00;100945.41;5054481;28;20021;-78
2022/12/30 03:45:03;;;;;;;11.88;2.85;;;;;;;2.95;100.00;100930.66;5053667;28;20029;-78
2022/12/30 03:47:28;;;;;;;16.50;2.60;;;;;;;2.95;100.00;100933.28;5054207;28;20536;-78
2022/12/30 03:49:54;;;;;;;15.63;3.45;;;;;;;2.94;100.00;100948.22;5053821;28;20059;-77
2022/12/30 03:52:21;;;;;;;17.83;3.00;;;;;;;2.90;100.00;100951.94;5052517;28;20071;-78
2022/12/30 03:54:47;;;;;;;18.05;3.38;;;;;;;2.87;100.00;100952.13;5053439;28;20115;-76
2022/12/30 03:57:13;;;;;;;12.38;3.05;;;;;;;2.94;100.00;100952.59;5054096;28;20024;-79
2022/12/30 03:59:39;;;;;;;15.45;4.15;;;;;;;2.93;100.00;100935.16;5054229;28;20078;-79
2022/12/30 04:02:05;;;;;;;17.00;3.50;;;;;;;2.86;100.00;100939.88;5053727;28;20025;-78
2022/12/30 04:04:30;;;;;;;12.88;3.33;;;;;;;2.86;100.00;100929.38;5054446;28;20402;-78
2022/12/30 04:06:55;;;;;;;15.57;3.78;;;;;;;2.86;100.00;100928.53;5053570;28;20029;-79
2022/12/30 04:09:21;;;;;;;17.05;2.78;;;;;;;2.84;100.00;100926.00;5054111;28;20021;-79
2022/12/30 04:11:46;;;;;;;10.23;2.85;;;;;;;2.82;100.00;100925.22;5053869;28;20453;-77
2022/12/30 04:14:12;;;;;;;13.52;2.83;;;;;;;2.81;100.00;100927.00;5053271;28;20377;-79
2022/12/30 04:16:37;;;;;;;13.80;3.30;;;;;;;2.85;100.00;100932.94;5053936;28;20131;-79
2022/12/30 04:19:03;;;;;;;8.05;2.65;;;;;;;2.88;100.00;100927.53;5053182;28;20385;-76
2022/12/30 04:21:29;;;;;;;17.13;3.22;;;;;;;2.89;100.00;100931.00;5052644;28;20029;-77
2022/12/30 04:23:54;;;;;;;10.30;2.78;;;;;;;2.84;100.00;100931.25;5053173;28;20087;-77
2022/12/30 04:26:19;;;;;;;25.55;3.13;;;;;;;2.83;100.00;100925.13;5052432;28;20029;-76
2022/12/30 04:28:45;;;;;;;17.25;2.85;;;;;;;2.76;100.00;100923.81;5053471;28;20029;-78
2022/12/30 04:31:10;;;;;;;17.65;2.63;;;;;;;2.79;100.00;100925.41;5052790;28;20025;-78
2022/12/30 04:33:36;;;;;;;18.52;3.22;;;;;;;2.83;100.00;100926.94;5053375;28;20025;-78
2022/12/30 04:36:01;;;;;;;14.40;2.72;;;;;;;2.80;100.00;100917.44;5052999;28;20056;-78
2022/12/30 04:38:27;;;;;;;16.13;2.90;;;;;;;2.77;100.00;100916.78;5053355;28;20078;-79
2022/12/30 04:40:52;;;;;;;11.93;2.58;;;;;;;2.71;100.00;100917.97;5052980;28;20112;-77
2022/12/30 04:43:18;;;;;;;22.60;5.43;;;;;;;2.73;100.00;100916.09;5053357;28;20089;-78
2022/12/30 04:45:44;;;;;;;18.42;3.10;;;;;;;2.71;100.00;100912.69;5053177;28;20348;-78
2022/12/30 04:48:09;;;;;;;12.63;2.80;;;;;;;2.70;100.00;100905.75;5052600;28;20039;-78
2022/12/30 04:50:35;;;;;;;20.33;3.20;;;;;;;2.67;100.00;100908.53;5053135;28;20024;-78
2022/12/30 04:53:00;;;;;;;21.30;3.17;;;;;;;2.63;100.00;100904.41;5052604;28;20056;-78
2022/12/30 04:55:25;;;;;;;14.88;3.30;;;;;;;2.62;100.00;100910.59;5052977;28;20025;-78
2022/12/30 04:57:51;;;;;;;10.63;3.08;;;;;;;2.67;100.00;100907.72;5052886;28;20373;-78
2022/12/30 05:00:16;;;;;;;14.75;2.28;;;;;;;2.75;100.00;100913.41;5052312;28;20056;-79
2022/12/30 05:02:42;;;;;;;11.48;2.70;;;;;;;2.74;100.00;100901.19;5052865;28;20029;-78
2022/12/30 05:05:07;;;;;;;18.85;2.60;;;;;;;2.76;100.00;100904.56;5052436;28;20033;-78
2022/12/30 05:07:33;;;;;;;11.30;2.35;;;;;;;2.77;100.00;100893.94;5052826;28;20028;-78
2022/12/30 05:09:58;;;;;;;8.45;2.53;;;;;;;2.75;100.00;100905.50;5052367;28;20025;-78
2022/12/30 05:12:24;;;;;;;18.83;3.28;;;;;;;2.73;100.00;100899.47;5052834;28;20032;-78
2022/12/30 05:14:49;;;;;;;17.60;3.72;;;;;;;2.74;100.00;100904.63;5052555;28;20036;-78
2022/12/30 05:17:14;;;;;;;16.02;3.20;;;;;;;2.67;100.00;100903.28;5052280;28;20111;-78
2022/12/30 05:19:40;;;;;;;19.50;3.90;;;;;;;2.62;100.00;100905.34;5052466;28;20457;-78
2022/12/30 05:22:05;;;;;;;11.98;3.45;;;;;;;2.61;100.00;100909.75;5052205;28;20065;-78
2022/12/30 05:27:14;;;;;;;8.15;2.65;;;;;;;2.51;100.00;100895.44;5051939;28;20095;-78
2022/12/30 05:29:40;;;;;;;19.70;3.58;;;;;;;2.45;100.00;100898.41;5052343;28;20029;-78
2022/12/30 05:32:05;;;;;;;16.95;2.95;;;;;;;2.47;100.00;100886.88;5051721;28;20105;-77
2022/12/30 05:34:31;;;;;;;13.75;3.33;;;;;;;2.49;100.00;100880.69;5052147;28;20036;-78
2022/12/30 05:36:56;;;;;;;10.15;3.28;;;;;;;2.46;100.00;100890.44;5052744;28;20032;-79
2022/12/30 05:39:21;;;;;;;17.40;3.33;;;;;;;2.42;100.00;100890.72;5052134;28;20415;-78
2022/12/30 05:41:47;;;;;;;8.52;3.05;;;;;;;2.34;100.00;100877.97;5052390;28;20406;-79
2022/12/30 05:44:12;;;;;;;14.82;2.78;;;;;;;2.27;100.00;100871.41;5051946;28;20071;-79
2022/12/30 05:46:37;;;;;;;15.90;3.53;;;;;;;2.27;100.00;100866.16;5051038;28;20083;-76
2022/12/30 05:49:03;;;;;;;19.67;3.60;;;;;;;2.25;100.00;100863.56;5052008;28;20171;-75
2022/12/30 05:51:29;;;;;;;20.02;3.03;;;;;;;2.22;100.00;100861.13;5052211;28;20070;-76
2022/12/30 05:53:55;;;;;;;13.30;2.70;;;;;;;2.23;100.00;100854.13;5052214;28;20025;-80
2022/12/30 05:56:21;;;;;;;12.70;2.72;;;;;;;2.24;100.00;100856.66;5051522;28;20034;-77
2022/12/30 05:58:46;;;;;;;11.32;2.80;;;;;;;2.19;100.00;100848.16;5052299;28;20474;-77
2022/12/30 06:01:12;;;;;;;16.33;2.90;;;;;;;2.23;100.00;100848.88;5051865;28;20032;-76
2022/12/30 06:03:37;;;;;;;21.08;4.18;;;;;;;2.29;100.00;100845.88;5051920;28;20060;-77
2022/12/30 06:06:06;;;;;;;13.88;3.00;;;;;;;2.27;100.00;100840.72;5052244;28;20354;-76
2022/12/30 06:08:33;;;;;;;16.70;3.05;;;;;;;2.26;100.00;100839.03;5052117;28;20025;-78
2022/12/30 06:10:58;;;;;;;13.88;3.30;;;;;;;2.20;100.00;100842.00;5051881;28;20025;-78
2022/12/30 06:13:23;;;;;;;15.95;3.20;;;;;;;2.17;100.00;100841.31;5051662;28;20112;-79
2022/12/30 06:15:49;;;;;;;15.43;2.92;;;;;;;2.20;100.00;100835.91;5052170;28;20024;-77
2022/12/30 06:18:14;;;;;;;13.95;3.22;;;;;;;2.18;100.00;100830.75;5051590;28;20041;-76
2022/12/30 06:20:40;;;;;;;14.98;3.35;;;;;;;2.24;100.00;100834.78;5052111;28;20060;-76
2022/12/30 06:23:06;;;;;;;14.93;4.10;;;;;;;2.20;100.00;100828.03;5051633;28;20112;-77
2022/12/30 06:25:32;;;;;;;13.10;3.60;;;;;;;2.19;100.00;100814.03;5051529;28;20361;-77
2022/12/30 06:27:57;;;;;;;16.50;4.25;;;;;;;2.15;100.00;100825.66;5051543;28;20029;-77
2022/12/30 06:30:23;;;;;;;16.85;3.30;;;;;;;2.15;100.00;100824.78;5051472;28;20060;-77
2022/12/30 06:32:48;;;;;;;18.30;3.78;;;;;;;2.20;100.00;100826.25;5052261;28;20490;-77
2022/12/30 06:35:13;;;;;;;11.32;3.63;;;;;;;2.20;100.00;100825.41;5051336;28;20489;-78
2022/12/30 06:37:39;;;;;;;14.45;3.45;;;;;;;2.25;100.00;100815.47;5052075;28;20021;-78
2022/12/30 06:40:06;;;;;;;22.38;3.33;;;;;;;2.22;100.00;100813.88;5051823;28;20033;-78
2022/12/30 06:42:31;;;;;;;17.55;3.17;;;;;;;2.23;100.00;100805.06;5051531;28;20020;-78
2022/12/30 06:44:57;;;;;;;15.25;4.18;;;;;;;2.21;100.00;100795.56;5054069;28;20372;-77
2022/12/30 06:47:22;;;;;;;15.70;2.90;;;;;;;2.22;100.00;100798.13;5053891;28;20024;-78
2022/12/30 06:49:47;;;;;;;18.45;3.70;;;;;;;2.20;100.00;100793.91;5055352;28;20037;-78
2022/12/30 06:52:13;;;;;;;19.58;3.35;;;;;;;2.16;100.00;100780.09;5055090;28;20033;-77
2022/12/30 06:54:38;;;;;;;12.85;2.95;;;;;;;2.16;100.00;100785.34;5054966;28;20071;-77
2022/12/30 06:57:04;;;;;;;18.25;3.30;;;;;;;2.08;100.00;100770.03;5055171;28;20028;-78
2022/12/30 06:59:29;;;;;;;11.50;3.38;;;;;;;2.14;100.00;100779.34;5054902;28;20078;-78
2022/12/30 07:01:54;;;;;;;16.30;3.47;;;;;;;2.20;100.00;100770.28;5055438;28;20040;-78
2022/12/30 07:04:20;;;;;;;15.15;4.13;;;;;;;2.19;100.00;100766.78;5054903;28;20434;-77
2022/12/30 07:06:45;;;;;;;13.15;3.35;;;;;;;2.26;100.00;100769.91;5054771;28;20029;-78
2022/12/30 07:09:11;;;;;;;15.75;3.35;;;;;;;2.26;100.00;100757.63;5055089;28;20342;-78
2022/12/30 07:11:36;;;;;;;17.48;3.47;;;;;;;2.20;100.00;100759.78;5054215;28;20047;-77
2022/12/30 07:14:01;;;;;;;14.93;4.05;;;;;;;2.17;100.00;100752.91;5054941;28;20029;-78
2022/12/30 07:16:26;;;;;;;12.43;4.28;;;;;;;2.18;100.00;100740.63;5054510;28;20059;-78
2022/12/30 07:18:52;;;;;;;23.10;3.92;;;;;;;2.14;100.00;100739.97;5054541;28;20029;-78
2022/12/30 07:21:19;;;;;;;12.50;3.67;;;;;;;2.23;100.00;100728.94;5054313;28;20033;-77
2022/12/30 07:23:44;;;;;;;15.63;4.93;;;;;;;2.20;100.00;100715.13;5054685;28;20111;-78
2022/12/30 07:26:09;;;;;;;17.10;4.00;;;;;;;2.22;100.00;100708.84;5054738;28;20107;-77
2022/12/30 07:28:35;;;;;;;19.65;4.13;;;;;;;2.25;100.00;100699.97;5054250;28;20024;-77
2022/12/30 07:31:00;;;;;;;10.88;3.35;;;;;;;2.27;100.00;100698.09;5054734;28;20032;-78
2022/12/30 07:33:25;;;;;;;19.95;4.05;;;;;;;2.26;100.00;100702.50;5053879;28;20461;-77
2022/12/30 07:35:51;;;;;;;17.98;4.10;;;;;;;2.32;100.00;100697.84;5054211;28;20206;-78
2022/12/30 07:38:16;;;;;;;21.35;4.28;;;;;;;2.39;100.00;100697.38;5054181;28;20032;-78
2022/12/30 07:40:41;;;;;;;16.50;4.30;;;;;;;2.40;100.00;100695.59;5054010;28;20029;-78
2022/12/30 07:43:07;;;;;;;10.57;3.80;;;;;;;2.42;100.00;100697.19;5054424;28;20075;-78
2022/12/30 07:45:32;;;;;;;16.67;5.20;;;;;;;2.47;100.00;100692.50;5053969;28;20037;-78
2022/12/30 07:47:58;;;;;;;19.25;4.28;;;;;;;2.47;100.00;100699.56;5054366;28;20090;-79
2022/12/30 07:50:24;;;;;;;12.45;3.67;;;;;;;2.56;100.00;100711.31;5053607;28;20477;-76
2022/12/30 07:52:49;;;;;;;15.20;3.90;;;;;;;2.70;100.00;100695.53;5054241;28;20025;-76
2022/12/30 07:55:15;;;;;;;19.13;4.68;;;;;;;2.81;100.00;100685.25;5053780;28;20362;-77
2022/12/30 07:57:40;;;;;;;15.85;3.83;;;;;;;2.89;100.00;100681.31;5053850;28;20029;-78
2022/12/30 08:00:09;;;;;;;17.27;4.90;;;;;;;2.93;100.00;100674.94;5054027;28;20098;-77
2022/12/30 08:02:35;;;;;;;16.02;4.20;;;;;;;2.96;100.00;100675.59;5053471;28;20039;-76
2022/12/30 08:05:00;;;;;;;16.83;4.82;;;;;;;2.99;100.00;100675.41;5053893;28;20032;-76
2022/12/30 08:07:26;;;;;;;21.38;6.13;;;;;;;3.04;100.00;100661.13;5053564;28;20028;-76
2022/12/30 08:09:51;;;;;;;15.32;5.18;;;;;;;3.07;100.00;100661.78;5053916;28;20120;-76
2022/12/30 08:12:17;;;;;;;17.75;5.22;;;;;;;3.11;100.00;100642.25;5053756;28;20029;-76
2022/12/30 08:14:42;;;;;;;10.77;5.72;;;;;;;3.16;100.00;100655.09;5052965;28;20336;-77
2022/12/30 08:17:07;;;;;;;14.57;5.43;;;;;;;3.20;100.00;100648.72;5053708;28;20083;-77
2022/12/30 08:19:33;;;;;;;20.13;7.05;;;;;;;3.22;100.00;100653.88;5053374;28;20021;-76
2022/12/30 08:21:58;;;;;;;17.23;6.15;;;;;;;3.26;100.00;100655.38;5053685;28;20146;-73
2022/12/30 08:24:23;;;;;;;20.67;6.40;;;;;;;3.29;100.00;100663.91;5053855;28;20035;-78
2022/12/30 08:26:49;;;;;;;9.95;5.65;;;;;;;3.33;100.00;100661.94;5053773;28;20502;-77
2022/12/30 08:29:14;;;;;;;19.15;6.22;;;;;;;3.38;100.00;100659.88;5054046;28;20481;-78
2022/12/30 08:31:40;;;;;;;17.90;5.80;;;;;;;3.42;100.00;100655.25;5053440;28;20076;-75
2022/12/30 08:34:05;;;;;;;17.92;5.10;;;;;;;3.46;100.00;100659.38;5053922;28;20082;-79
2022/12/30 08:36:31;;;;;;;10.15;5.55;;;;;;;3.49;100.00;100659.16;5057512;28;20067;-77
2022/12/30 08:39:02;;;;;;;13.40;5.65;;;;;;;3.51;100.00;100655.50;5050448;28;20033;-77
2022/12/30 08:41:34;;;;;;;15.13;6.00;;;;;;;3.55;100.00;100643.00;5050996;28;20028;-78
2022/12/30 08:44:02;;;;;;;16.13;5.53;;;;;;;3.56;100.00;100638.59;5051098;28;20028;-79
2022/12/30 08:46:28;;;;;;;17.77;5.53;;;;;;;3.59;100.00;100631.34;5050849;28;20036;-78
2022/12/30 08:48:54;;;;;;;13.48;5.15;;;;;;;3.62;100.00;100630.31;5050142;28;20052;-78
2022/12/30 08:51:20;;;;;;;13.95;5.43;;;;;;;3.67;100.00;100623.81;5050415;28;20449;-78
2022/12/30 08:53:46;;;;;;;15.88;4.65;;;;;;;3.74;100.00;100618.13;5050191;28;20119;-79
2022/12/30 08:56:17;;;;;;;13.15;4.72;;;;;;;3.78;100.00;100617.00;5050622;28;20032;-78
2022/12/30 08:58:43;;;;;;;13.80;4.55;;;;;;;3.81;100.00;100595.75;5050297;28;20048;-75
2022/12/30 09:01:11;;;;;;;14.43;4.43;;;;;;;3.86;100.00;100596.25;5050771;28;20429;-76
2022/12/30 09:03:41;;;;;;;13.27;5.22;;;;;;;3.88;100.00;100594.38;5050117;28;20082;-74
2022/12/30 09:06:08;;;;;;;15.45;4.63;;;;;;;3.89;100.00;100583.72;5054515;28;20152;-76
2022/12/30 09:08:33;;;;;;;13.23;4.35;;;;;;;3.92;100.00;100585.31;5050263;28;20047;-77
2022/12/30 09:11:01;;;;;;;16.30;4.40;;;;;;;3.93;100.00;100583.56;5049209;28;20092;-78
2022/12/30 09:13:27;;;;;;;10.13;4.15;;;;;;;3.94;100.00;100579.97;5050099;28;20029;-78
2022/12/30 09:15:53;;;;;;;17.15;4.15;;;;;;;3.97;100.00;100571.84;5049429;28;20036;-79
2022/12/30 09:18:18;;;;;;;14.38;3.97;;;;;;;4.03;100.00;100574.94;5050239;28;20033;-78
2022/12/30 09:20:44;;;;;;;13.00;3.97;;;;;;;4.05;100.00;100565.13;5049429;28;20480;-77
2022/12/30 09:23:10;;;;;;;8.23;3.75;;;;;;;4.11;100.00;100569.13;5050479;28;20081;-78
2022/12/30 09:25:35;;;;;;;13.52;3.63;;;;;;;4.12;100.00;100562.06;5049976;28;20459;-77
2022/12/30 09:28:01;;;;;;;11.93;3.40;;;;;;;4.14;100.00;100568.09;5047779;28;20108;-78
2022/12/30 09:30:26;;;;;;;11.18;3.60;;;;;;;4.17;100.00;100566.09;5049278;28;20480;-78
2022/12/30 09:32:51;;;;;;;16.88;3.50;;;;;;;4.19;100.00;100556.28;5051796;28;20106;-78
2022/12/30 09:35:17;;;;;;;7.28;2.90;;;;;;;4.21;100.00;100546.50;5051989;28;20072;-78
2022/12/30 09:37:42;;;;;;;6.38;2.95;;;;;;;4.23;100.00;100541.13;5052198;28;20032;-77
2022/12/30 09:40:13;;;;;;;8.85;3.08;;;;;;;4.26;100.00;100540.09;5051716;28;20533;-77
2022/12/30 09:45:40;;;;;;;8.95;3.08;;;;;;;4.27;100.00;100518.91;5050961;28;20048;-77
2022/12/30 09:48:08;;;;;;;8.13;2.75;;;;;;;4.28;100.00;100527.63;5051910;28;20060;-76
2022/12/30 09:50:52;;;;;;;10.43;2.72;;;;;;;4.28;100.00;100517.09;5052020;28;20037;-76
2022/12/30 09:53:44;;;;;;;13.73;2.60;;;;;;;4.30;100.00;100507.28;5052197;28;20029;-77
2022/12/30 09:56:16;;;;;;;10.23;2.70;;;;;;;4.33;100.00;100507.06;5051571;28;20037;-77
2022/12/30 09:58:45;;;;;;;8.95;3.13;;;;;;;4.36;100.00;100501.59;5050654;28;20033;-77
2022/12/30 10:05:24;;;;;;;10.13;2.63;;;;;;;4.43;100.00;100471.25;5052457;28;20063;-77
2022/12/30 10:08:02;;;;;;;11.00;2.33;;;;;;;4.45;100.00;100465.84;5051981;28;20406;-77
2022/12/30 10:10:37;;;;;;;6.43;2.42;;;;;;;4.51;100.00;100463.66;5052584;28;20033;-77
2022/12/30 10:13:17;;;;;;;4.82;2.30;;;;;;;4.53;100.00;100453.84;5051917;28;20470;-77
2022/12/30 10:15:54;;;;;;;7.68;2.47;;;;;;;4.56;100.00;100448.34;5051803;28;20064;-77
2022/12/30 10:18:35;;;;;;;8.70;2.08;;;;;;;4.61;100.00;100439.28;5052430;28;20490;-77
2022/12/30 10:21:18;;;;;;;8.15;2.20;;;;;;;4.65;100.00;100424.94;5055269;28;20082;-77
2022/12/30 10:24:05;;;;;;;8.23;2.60;;;;;;;4.67;100.00;100407.19;5055561;28;20052;-77
2022/12/30 10:26:45;;;;;;;6.13;2.10;;;;;;;4.70;100.00;100417.50;5055945;28;20033;-75
2022/12/30 10:29:19;;;;;;;6.35;2.15;;;;;;;4.75;100.00;100397.78;5052833;28;20032;-73
2022/12/30 10:31:46;;;;;;;8.63;2.10;;;;;;;4.78;100.00;100394.09;5044431;28;20033;-76
2022/12/30 10:34:15;;;;;;;9.00;2.10;;;;;;;4.79;100.00;100379.09;5053993;28;20491;-75
2022/12/30 10:37:00;;;;;;;8.82;2.10;;;;;;;4.82;100.00;100365.69;5053007;28;20463;-75
2022/12/30 10:39:31;;;;;;;5.25;1.83;;;;;;;4.85;100.00;100357.56;5053597;28;20036;-75
2022/12/30 10:42:14;;;;;;;5.55;2.22;;;;;;;4.87;100.00;100361.78;5053992;28;20079;-74
2022/12/30 10:44:56;;;;;;;4.03;2.22;;;;;;;4.91;100.00;100325.47;5054666;28;20040;-76
2022/12/30 10:47:50;;;;;;;4.78;2.10;;;;;;;4.95;100.00;100313.75;5054732;28;20033;-76
2022/12/30 10:50:26;;;;;;;8.50;3.35;;;;;;;4.95;100.00;100308.47;5054658;28;20074;-76
2022/12/30 10:52:52;;;;;;;14.55;2.72;;;;;;;4.97;100.00;100308.34;5054064;28;20106;-75
2022/12/30 10:55:20;;;;;;;9.93;3.38;;;;;;;4.98;100.00;100287.13;5054080;28;20473;-75
2022/12/30 10:57:49;;;;;;;9.30;3.50;;;;;;;5.00;100.00;100279.13;5054271;28;20527;-75
2022/12/30 11:00:15;;;;;;;8.25;2.20;;;;;;;5.00;100.00;100277.34;5053894;28;20025;-75
2022/12/30 11:02:54;;;;;;;9.60;2.50;;;;;;;5.07;100.00;100264.50;5054260;28;20033;-74
2022/12/30 11:05:38;;;;;;;6.97;2.53;;;;;;;5.11;100.00;100236.94;5054302;28;20029;-75
2022/12/30 11:08:06;;;;;;;8.68;2.42;;;;;;;5.14;100.00;100235.88;5053773;28;20082;-74
2022/12/30 11:10:32;;;;;;;6.50;2.10;;;;;;;5.18;100.00;100227.59;5053809;28;20385;-75
2022/12/30 11:15:58;;;;;;;5.15;1.83;;;;;;;5.26;100.00;100209.38;5052842;28;20431;-76
2022/12/30 11:18:29;;;;;;;7.45;2.60;;;;;;;5.30;100.00;100208.19;5053279;28;20573;-78
2022/12/30 11:21:00;;;;;;;4.97;1.88;;;;;;;5.34;100.00;100190.28;5052693;28;20469;-75
2022/12/30 11:23:30;;;;;;;5.70;2.00;;;;;;;5.39;100.00;100174.09;5053486;28;20386;-76
2022/12/30 11:25:57;;;;;;;7.68;2.13;;;;;;;5.39;100.00;100177.59;5052678;28;20033;-75
2022/12/30 11:28:26;;;;;;;4.50;2.90;;;;;;;5.45;100.00;100156.00;5053219;28;20025;-76
2022/12/30 11:30:52;;;;;;;9.75;2.10;;;;;;;5.51;100.00;100149.41;5052649;28;20044;-76
2022/12/30 11:33:21;;;;;;;11.38;3.08;;;;;;;5.54;100.00;100143.88;5053590;28;20473;-76
2022/12/30 11:35:49;;;;;;;8.35;1.88;;;;;;;5.51;100.00;100130.94;5053220;28;20086;-78
2022/12/30 11:38:39;;;;;;;8.13;3.05;;;;;;;5.45;100.00;100113.78;5053108;28;20052;-76
2022/12/30 11:41:17;;;;;;;4.93;2.05;;;;;;;5.37;100.00;100107.44;5053261;28;20029;-76
2022/12/30 11:43:43;;;;;;;7.88;2.78;;;;;;;5.30;100.00;100088.66;5053256;28;20032;-78
2022/12/30 11:46:11;;;;;;;6.97;2.10;;;;;;;5.26;100.00;100098.59;5052967;28;20033;-82
2022/12/30 11:48:54;;;;;;;7.47;2.10;;;;;;;5.23;100.00;100061.06;5053404;28;20033;-77
2022/12/30 11:51:23;;;;;;;7.00;2.33;;;;;;;5.20;100.00;100077.16;5053433;28;20055;-78
2022/12/30 11:54:00;;;;;;;8.30;2.67;;;;;;;5.20;100.00;100059.50;5053180;28;20235;-77
2022/12/30 11:56:26;;;;;;;7.80;1.95;;;;;;;5.17;100.00;100059.75;5053241;28;20433;-78
2022/12/30 11:58:52;;;;;;;7.72;2.10;;;;;;;5.16;100.00;100047.53;5053009;28;20028;-78
2022/12/30 12:01:17;;;;;;;6.72;1.80;;;;;;;5.17;100.00;100032.56;5053261;28;20025;-80
2022/12/30 12:03:55;;;;;;;8.45;2.05;;;;;;;5.20;100.00;100024.41;5053558;28;20037;-78
2022/12/30 12:06:20;;;;;;;4.90;1.83;;;;;;;5.24;100.00;100036.34;5053067;28;20036;-78
2022/12/30 12:09:10;;;;;;;7.15;1.80;;;;;;;5.26;100.00;100013.34;5052884;28;20032;-80
2022/12/30 12:11:45;;;;;;;6.28;1.77;;;;;;;5.30;100.00;100009.50;5053090;28;20037;-77
2022/12/30 12:14:27;;;;;;;8.10;2.00;;;;;;;5.38;100.00;100014.16;5052520;28;20036;-79
2022/12/30 12:17:04;;;;;;;7.88;1.90;;;;;;;5.40;100.00;99986.66;5053056;28;20100;-78
2022/12/30 12:19:50;;;;;;;7.90;1.98;;;;;;;5.42;100.00;99974.19;5052792;28;20033;-78
2022/12/30 12:22:25;;;;;;;7.63;2.05;;;;;;;5.43;100.00;99977.66;5052851;28;20025;-83
2022/12/30 12:24:57;;;;;;;11.30;1.98;;;;;;;5.44;100.00;99939.78;5053884;28;20098;-80
2022/12/30 12:27:24;;;;;;;8.50;2.22;;;;;;;5.44;100.00;99921.31;5053428;28;20228;-78
2022/12/30 12:29:49;;;;;;;7.53;1.75;;;;;;;5.47;100.00;99906.03;5052784;28;20492;-77